sensor_id;sensor_type;location;lat;lon;timestamp;temperature;humidity
6556;DHT22;3311;48.32423000;14.29074500;2022-11-27T07:34:14;10.50;65.70
6556;DHT22;3311;48.32423000;14.29074500;2022-11-27T07:36:42;10.50;66.10
6556;DHT22;3311;48.32423000;14.29074500;2022-11-27T07:39:09;10.50;65.90
6556;DHT22;3311;48.32423000;14.29074500;2022-11-27T07:41:36;10.50;66.10
6556;DHT22;3311;48.32423000;14.29074500;2022-11-27T07:44:03;10.50;65.90
6556;DHT22;3311;48.32423000;14.29074500;2022-11-27T07:46:31;10.50;66.10
6556;DHT22;3311;48.32423000;14.29074500;2022-11-27T07:48:58;10.60;66.10
6556;DHT22;3311;48.32423000;14.29074500;2022-11-27T07:51:28;10.60;66.50
6556;DHT22;3311;48.32423000;14.29074500;2022-11-27T07:53:55;10.60;65.90
6556;DHT22;3311;48.32423000;14.29074500;2022-11-27T07:56:23;10.60;66.20
6556;DHT22;3311;48.32423000;14.29074500;2022-11-27T07:58:50;10.60;65.80
6556;DHT22;3311;48.32423000;14.29074500;2022-11-27T08:01:18;10.60;66.10
6556;DHT22;3311;48.32423000;14.29074500;2022-11-27T08:03:46;10.50;66.20
6556;DHT22;3311;48.32423000;14.29074500;2022-11-27T08:06:16;10.50;66.40
6556;DHT22;3311;48.32423000;14.29074500;2022-11-27T08:08:46;10.40;66.70
6556;DHT22;3311;48.32423000;14.29074500;2022-11-27T08:11:15;10.50;66.50
6556;DHT22;3311;48.32423000;14.29074500;2022-11-27T08:13:43;10.50;66.20
6556;DHT22;3311;48.32423000;14.29074500;2022-11-27T08:16:10;10.50;66.50
6556;DHT22;3311;48.32423000;14.29074500;2022-11-27T08:18:37;10.60;66.30
6556;DHT22;3311;48.32423000;14.29074500;2022-11-27T08:21:05;10.60;66.30
6556;DHT22;3311;48.32423000;14.29074500;2022-11-27T08:23:32;10.50;65.90
6556;DHT22;3311;48.32423000;14.29074500;2022-11-27T08:26:04;10.40;66.20
6556;DHT22;3311;48.32423000;14.29074500;2022-11-27T08:28:32;10.60;66.30
6556;DHT22;3311;48.32423000;14.29074500;2022-11-27T08:31:01;10.60;65.90
6556;DHT22;3311;48.32423000;14.29074500;2022-11-27T08:33:29;10.40;65.90
6556;DHT22;3311;48.32423000;14.29074500;2022-11-27T08:35:57;10.40;66.00
6556;DHT22;3311;48.32423000;14.29074500;2022-11-27T08:38:25;10.40;66.20
6556;DHT22;3311;48.32423000;14.29074500;2022-11-27T08:40:57;10.40;66.10
6556;DHT22;3311;48.32423000;14.29074500;2022-11-27T08:43:26;10.50;66.30
6556;DHT22;3311;48.32423000;14.29074500;2022-11-27T08:45:54;10.50;65.90
6556;DHT22;3311;48.32423000;14.29074500;2022-11-27T08:48:22;10.50;65.90
6556;DHT22;3311;48.32423000;14.29074500;2022-11-27T08:50:51;10.60;66.00
6556;DHT22;3311;48.32423000;14.29074500;2022-11-27T08:53:18;10.60;65.70
6556;DHT22;3311;48.32423000;14.29074500;2022-11-27T08:55:46;10.60;65.40
6556;DHT22;3311;48.32423000;14.29074500;2022-11-27T08:58:14;10.50;65.40
6556;DHT22;3311;48.32423000;14.29074500;2022-11-27T09:00:42;10.40;65.20
6556;DHT22;3311;48.32423000;14.29074500;2022-11-27T09:03:10;10.40;65.50
6556;DHT22;3311;48.32423000;14.29074500;2022-11-27T09:05:41;10.40;65.60
6556;DHT22;3311;48.32423000;14.29074500;2022-11-27T09:08:09;10.40;65.10
6556;DHT22;3311;48.32423000;14.29074500;2022-11-27T09:10:41;10.40;65.50
6556;DHT22;3311;48.32423000;14.29074500;2022-11-27T09:13:08;10.60;65.10
6556;DHT22;3311;48.32423000;14.29074500;2022-11-27T09:15:35;10.60;64.70
6556;DHT22;3311;48.32423000;14.29074500;2022-11-27T09:18:04;10.50;64.50
6556;DHT22;3311;48.32423000;14.29074500;2022-11-27T09:20:31;10.50;64.60
6556;DHT22;3311;48.32423000;14.29074500;2022-11-27T09:22:58;10.50;64.90
6556;DHT22;3311;48.32423000;14.29074500;2022-11-27T09:25:27;10.50;65.40
6556;DHT22;3311;48.32423000;14.29074500;2022-11-27T09:27:54;10.50;65.00
6556;DHT22;3311;48.32423000;14.29074500;2022-11-27T09:30:22;10.60;64.90
6556;DHT22;3311;48.32423000;14.29074500;2022-11-27T09:32:49;10.50;64.90
6556;DHT22;3311;48.32423000;14.29074500;2022-11-27T09:35:18;10.70;65.20
6556;DHT22;3311;48.32423000;14.29074500;2022-11-27T09:37:45;10.70;64.80
6556;DHT22;3311;48.32423000;14.29074500;2022-11-27T09:40:13;10.60;64.80
6556;DHT22;3311;48.32423000;14.29074500;2022-11-27T09:42:46;10.70;64.90
6556;DHT22;3311;48.32423000;14.29074500;2022-11-27T09:45:16;10.60;64.90
6556;DHT22;3311;48.32423000;14.29074500;2022-11-27T09:47:47;10.70;65.40
6556;DHT22;3311;48.32423000;14.29074500;2022-11-27T09:50:20;10.70;64.90
6556;DHT22;3311;48.32423000;14.29074500;2022-11-27T09:52:52;10.90;64.70
6556;DHT22;3311;48.32423000;14.29074500;2022-11-27T09:55:24;10.90;64.60
6556;DHT22;3311;48.32423000;14.29074500;2022-11-27T09:57:57;10.80;64.60
6556;DHT22;3311;48.32423000;14.29074500;2022-11-27T10:00:25;10.90;64.50
6556;DHT22;3311;48.32423000;14.29074500;2022-11-27T10:02:52;10.90;64.40
6556;DHT22;3311;48.32423000;14.29074500;2022-11-27T10:05:22;10.80;64.30
6556;DHT22;3311;48.32423000;14.29074500;2022-11-27T10:08:06;10.80;64.40
6556;DHT22;3311;48.32423000;14.29074500;2022-11-27T10:10:45;10.70;64.40
6556;DHT22;3311;48.32423000;14.29074500;2022-11-27T10:13:27;10.70;64.50
6556;DHT22;3311;48.32423000;14.29074500;2022-11-27T10:16:02;10.80;64.30
6556;DHT22;3311;48.32423000;14.29074500;2022-11-27T10:18:37;10.80;64.30
6556;DHT22;3311;48.32423000;14.29074500;2022-11-27T10:21:14;10.70;64.20
6556;DHT22;3311;48.32423000;14.29074500;2022-11-27T10:23:48;10.70;64.20
6556;DHT22;3311;48.32423000;14.29074500;2022-11-27T10:26:18;10.60;64.50
6556;DHT22;3311;48.32423000;14.29074500;2022-11-27T10:28:54;10.50;64.80
6556;DHT22;3311;48.32423000;14.29074500;2022-11-27T10:31:32;10.60;64.90
6556;DHT22;3311;48.32423000;14.29074500;2022-11-27T10:34:04;10.80;64.70
6556;DHT22;3311;48.32423000;14.29074500;2022-11-27T10:36:37;10.80;64.70
6556;DHT22;3311;48.32423000;14.29074500;2022-11-27T10:39:12;10.70;64.70
6556;DHT22;3311;48.32423000;14.29074500;2022-11-27T10:41:49;10.70;65.00
6556;DHT22;3311;48.32423000;14.29074500;2022-11-27T10:44:25;10.80;64.80
6556;DHT22;3311;48.32423000;14.29074500;2022-11-27T10:46:57;10.90;64.70
6556;DHT22;3311;48.32423000;14.29074500;2022-11-27T10:49:26;10.90;64.50
6556;DHT22;3311;48.32423000;14.29074500;2022-11-27T10:51:55;10.90;64.60
6556;DHT22;3311;48.32423000;14.29074500;2022-11-27T10:54:26;10.80;64.40
6556;DHT22;3311;48.32423000;14.29074500;2022-11-27T10:59:58;10.90;64.70
6556;DHT22;3311;48.32423000;14.29074500;2022-11-27T11:02:31;10.90;64.50
6556;DHT22;3311;48.32423000;14.29074500;2022-11-27T11:05:15;10.90;64.60
6556;DHT22;3311;48.32423000;14.29074500;2022-11-27T11:07:55;10.90;64.60
6556;DHT22;3311;48.32423000;14.29074500;2022-11-27T11:10:27;11.10;64.30
6556;DHT22;3311;48.32423000;14.29074500;2022-11-27T11:13:15;11.00;64.00
6556;DHT22;3311;48.32423000;14.29074500;2022-11-27T11:15:50;11.00;64.10
6556;DHT22;3311;48.32423000;14.29074500;2022-11-27T11:18:19;11.10;64.30
6556;DHT22;3311;48.32423000;14.29074500;2022-11-27T11:20:49;11.10;64.20
6556;DHT22;3311;48.32423000;14.29074500;2022-11-27T11:23:27;11.00;64.00
6556;DHT22;3311;48.32423000;14.29074500;2022-11-27T11:25:59;11.00;64.50
6556;DHT22;3311;48.32423000;14.29074500;2022-11-27T11:28:28;11.10;64.30
6556;DHT22;3311;48.32423000;14.29074500;2022-11-27T11:31:00;11.00;64.30
6556;DHT22;3311;48.32423000;14.29074500;2022-11-27T11:33:29;11.00;64.00
6556;DHT22;3311;48.32423000;14.29074500;2022-11-27T11:36:05;11.00;64.10
6556;DHT22;3311;48.32423000;14.29074500;2022-11-27T11:38:36;10.90;64.00
6556;DHT22;3311;48.32423000;14.29074500;2022-11-27T11:41:06;11.10;64.30
6556;DHT22;3311;48.32423000;14.29074500;2022-11-27T11:43:35;11.10;64.80
6556;DHT22;3311;48.32423000;14.29074500;2022-11-27T11:46:05;11.10;64.00
6556;DHT22;3311;48.32423000;14.29074500;2022-11-27T11:48:34;11.10;64.00
6556;DHT22;3311;48.32423000;14.29074500;2022-11-27T11:51:07;11.10;63.70
6556;DHT22;3311;48.32423000;14.29074500;2022-11-27T11:53:41;11.10;63.90
6556;DHT22;3311;48.32423000;14.29074500;2022-11-27T11:56:21;11.10;63.60
6556;DHT22;3311;48.32423000;14.29074500;2022-11-27T11:58:55;11.10;64.40
6556;DHT22;3311;48.32423000;14.29074500;2022-11-27T12:01:48;11.20;63.80
6556;DHT22;3311;48.32423000;14.29074500;2022-11-27T12:04:45;11.10;63.70
6556;DHT22;3311;48.32423000;14.29074500;2022-11-27T12:07:23;11.20;63.70
6556;DHT22;3311;48.32423000;14.29074500;2022-11-27T12:09:59;11.10;63.60
6556;DHT22;3311;48.32423000;14.29074500;2022-11-27T12:12:44;11.20;63.70
6556;DHT22;3311;48.32423000;14.29074500;2022-11-27T12:15:20;11.20;63.70
6556;DHT22;3311;48.32423000;14.29074500;2022-11-27T12:17:57;11.40;63.50
6556;DHT22;3311;48.32423000;14.29074500;2022-11-27T12:20:32;11.40;63.20
6556;DHT22;3311;48.32423000;14.29074500;2022-11-27T12:23:45;11.40;63.10
6556;DHT22;3311;48.32423000;14.29074500;2022-11-27T12:26:25;11.40;63.20
6556;DHT22;3311;48.32423000;14.29074500;2022-11-27T12:29:13;11.30;63.10
6556;DHT22;3311;48.32423000;14.29074500;2022-11-27T12:32:01;11.40;63.10
6556;DHT22;3311;48.32423000;14.29074500;2022-11-27T12:34:38;11.30;63.00
6556;DHT22;3311;48.32423000;14.29074500;2022-11-27T12:37:21;11.30;63.30
6556;DHT22;3311;48.32423000;14.29074500;2022-11-27T12:40:20;11.30;63.00
6556;DHT22;3311;48.32423000;14.29074500;2022-11-27T12:42:58;11.20;63.20
6556;DHT22;3311;48.32423000;14.29074500;2022-11-27T12:45:34;11.30;63.30
6556;DHT22;3311;48.32423000;14.29074500;2022-11-27T12:48:10;11.30;63.50
6556;DHT22;3311;48.32423000;14.29074500;2022-11-27T12:50:42;11.40;63.10
6556;DHT22;3311;48.32423000;14.29074500;2022-11-27T12:53:17;11.30;63.00
6556;DHT22;3311;48.32423000;14.29074500;2022-11-27T12:55:55;11.40;63.10
6556;DHT22;3311;48.32423000;14.29074500;2022-11-27T12:58:29;11.40;62.90
6556;DHT22;3311;48.32423000;14.29074500;2022-11-27T13:01:01;11.40;62.90
6556;DHT22;3311;48.32423000;14.29074500;2022-11-27T13:03:34;11.40;63.00
6556;DHT22;3311;48.32423000;14.29074500;2022-11-27T13:06:07;11.40;63.00
6556;DHT22;3311;48.32423000;14.29074500;2022-11-27T13:08:44;11.30;63.20
6556;DHT22;3311;48.32423000;14.29074500;2022-11-27T13:11:15;11.40;63.30
6556;DHT22;3311;48.32423000;14.29074500;2022-11-27T13:13:47;11.40;63.30
6556;DHT22;3311;48.32423000;14.29074500;2022-11-27T13:16:20;11.30;63.20
6556;DHT22;3311;48.32423000;14.29074500;2022-11-27T13:18:52;11.40;63.30
6556;DHT22;3311;48.32423000;14.29074500;2022-11-27T13:21:23;11.40;63.20
6556;DHT22;3311;48.32423000;14.29074500;2022-11-27T13:23:51;11.50;63.20
6556;DHT22;3311;48.32423000;14.29074500;2022-11-27T13:26:21;11.50;63.10
6556;DHT22;3311;48.32423000;14.29074500;2022-11-27T13:28:53;11.40;63.10
6556;DHT22;3311;48.32423000;14.29074500;2022-11-27T13:31:24;11.40;63.40
6556;DHT22;3311;48.32423000;14.29074500;2022-11-27T13:33:58;11.40;63.40
6556;DHT22;3311;48.32423000;14.29074500;2022-11-27T13:36:28;11.40;63.60
6556;DHT22;3311;48.32423000;14.29074500;2022-11-27T13:38:57;11.40;63.50
6556;DHT22;3311;48.32423000;14.29074500;2022-11-27T13:41:31;11.30;63.60
6556;DHT22;3311;48.32423000;14.29074500;2022-11-27T13:44:01;11.40;63.60
6556;DHT22;3311;48.32423000;14.29074500;2022-11-27T13:46:31;11.40;63.40
6556;DHT22;3311;48.32423000;14.29074500;2022-11-27T13:49:23;11.50;63.40
6556;DHT22;3311;48.32423000;14.29074500;2022-11-27T13:51:51;11.40;63.40
6556;DHT22;3311;48.32423000;14.29074500;2022-11-27T13:54:19;11.40;63.50
6556;DHT22;3311;48.32423000;14.29074500;2022-11-27T13:56:47;11.50;63.40
6556;DHT22;3311;48.32423000;14.29074500;2022-11-27T13:59:18;11.40;63.30
6556;DHT22;3311;48.32423000;14.29074500;2022-11-27T14:01:56;11.50;63.30
6556;DHT22;3311;48.32423000;14.29074500;2022-11-27T14:04:26;11.50;63.30
6556;DHT22;3311;48.32423000;14.29074500;2022-11-27T14:06:56;11.50;63.20
6556;DHT22;3311;48.32423000;14.29074500;2022-11-27T14:09:35;11.50;63.30
6556;DHT22;3311;48.32423000;14.29074500;2022-11-27T14:12:18;11.40;63.20
6556;DHT22;3311;48.32423000;14.29074500;2022-11-27T14:15:00;11.30;63.50
6556;DHT22;3311;48.32423000;14.29074500;2022-11-27T14:17:34;11.40;63.60
6556;DHT22;3311;48.32423000;14.29074500;2022-11-27T14:20:20;11.50;63.20
6556;DHT22;3311;48.32423000;14.29074500;2022-11-27T14:22:48;11.50;63.10
6556;DHT22;3311;48.32423000;14.29074500;2022-11-27T14:25:22;11.40;63.10
6556;DHT22;3311;48.32423000;14.29074500;2022-11-27T14:27:59;11.40;63.40
6556;DHT22;3311;48.32423000;14.29074500;2022-11-27T14:30:34;11.40;63.60
6556;DHT22;3311;48.32423000;14.29074500;2022-11-27T14:33:04;11.30;63.70
6556;DHT22;3311;48.32423000;14.29074500;2022-11-27T14:35:31;11.30;63.90
6556;DHT22;3311;48.32423000;14.29074500;2022-11-27T14:38:09;11.30;64.50
6556;DHT22;3311;48.32423000;14.29074500;2022-11-27T14:40:37;11.30;63.80
6556;DHT22;3311;48.32423000;14.29074500;2022-11-27T14:43:09;11.40;64.10
6556;DHT22;3311;48.32423000;14.29074500;2022-11-27T14:45:43;11.40;63.80
6556;DHT22;3311;48.32423000;14.29074500;2022-11-27T14:48:22;11.30;63.90
6556;DHT22;3311;48.32423000;14.29074500;2022-11-27T14:50:51;11.30;64.10
6556;DHT22;3311;48.32423000;14.29074500;2022-11-27T14:53:20;11.30;64.20
6556;DHT22;3311;48.32423000;14.29074500;2022-11-27T14:55:51;11.30;64.20
6556;DHT22;3311;48.32423000;14.29074500;2022-11-27T14:58:22;11.30;64.30
6556;DHT22;3311;48.32423000;14.29074500;2022-11-27T15:00:56;11.30;64.30
6556;DHT22;3311;48.32423000;14.29074500;2022-11-27T15:03:24;11.20;64.40
6556;DHT22;3311;48.32423000;14.29074500;2022-11-27T15:05:55;11.10;64.40
6556;DHT22;3311;48.32423000;14.29074500;2022-11-27T15:08:23;11.00;64.70
6556;DHT22;3311;48.32423000;14.29074500;2022-11-27T15:10:53;11.10;64.60
6556;DHT22;3311;48.32423000;14.29074500;2022-11-27T15:13:25;11.20;64.50
6556;DHT22;3311;48.32423000;14.29074500;2022-11-27T15:15:58;11.10;64.60
6556;DHT22;3311;48.32423000;14.29074500;2022-11-27T15:18:27;10.90;64.80
6556;DHT22;3311;48.32423000;14.29074500;2022-11-27T15:20:56;10.80;65.00
6556;DHT22;3311;48.32423000;14.29074500;2022-11-27T15:23:26;10.80;65.30
6556;DHT22;3311;48.32423000;14.29074500;2022-11-27T15:26:07;10.60;65.70
6556;DHT22;3311;48.32423000;14.29074500;2022-11-27T15:28:38;10.50;65.90
6556;DHT22;3311;48.32423000;14.29074500;2022-11-27T15:31:28;10.60;65.90
6556;DHT22;3311;48.32423000;14.29074500;2022-11-27T15:33:58;10.40;65.90
6556;DHT22;3311;48.32423000;14.29074500;2022-11-27T15:36:33;10.50;66.10
6556;DHT22;3311;48.32423000;14.29074500;2022-11-27T15:39:17;10.50;65.90
6556;DHT22;3311;48.32423000;14.29074500;2022-11-27T15:41:52;10.30;65.70
6556;DHT22;3311;48.32423000;14.29074500;2022-11-27T15:44:21;10.20;66.20
6556;DHT22;3311;48.32423000;14.29074500;2022-11-27T15:46:51;10.20;66.20
6556;DHT22;3311;48.32423000;14.29074500;2022-11-27T15:49:20;10.10;66.10
6556;DHT22;3311;48.32423000;14.29074500;2022-11-27T15:51:49;10.10;66.40
6556;DHT22;3311;48.32423000;14.29074500;2022-11-27T15:54:18;10.10;66.30
6556;DHT22;3311;48.32423000;14.29074500;2022-11-27T15:56:45;10.30;66.00
6556;DHT22;3311;48.32423000;14.29074500;2022-11-27T15:59:13;10.30;65.70
6556;DHT22;3311;48.32423000;14.29074500;2022-11-27T16:01:41;10.10;66.00
6556;DHT22;3311;48.32423000;14.29074500;2022-11-27T16:04:10;10.10;65.80
6556;DHT22;3311;48.32423000;14.29074500;2022-11-27T16:06:38;10.10;65.90
6556;DHT22;3311;48.32423000;14.29074500;2022-11-27T16:09:05;10.00;66.10
6556;DHT22;3311;48.32423000;14.29074500;2022-11-27T16:11:33;10.00;66.20
6556;DHT22;3311;48.32423000;14.29074500;2022-11-27T16:14:02;9.80;66.50
6556;DHT22;3311;48.32423000;14.29074500;2022-11-27T16:16:29;9.80;66.90
6556;DHT22;3311;48.32423000;14.29074500;2022-11-27T16:18:57;9.60;67.20
6556;DHT22;3311;48.32423000;14.29074500;2022-11-27T16:21:28;9.60;67.60
6556;DHT22;3311;48.32423000;14.29074500;2022-11-27T16:23:57;9.70;67.00
6556;DHT22;3311;48.32423000;14.29074500;2022-11-27T16:26:24;9.60;66.70
6556;DHT22;3311;48.32423000;14.29074500;2022-11-27T16:28:52;9.70;67.20
6556;DHT22;3311;48.32423000;14.29074500;2022-11-27T16:31:20;9.60;66.90
6556;DHT22;3311;48.32423000;14.29074500;2022-11-27T16:33:47;9.50;67.30
6556;DHT22;3311;48.32423000;14.29074500;2022-11-27T16:36:16;9.50;67.40
6556;DHT22;3311;48.32423000;14.29074500;2022-11-27T16:38:46;9.50;67.10
6556;DHT22;3311;48.32423000;14.29074500;2022-11-27T16:41:15;9.40;67.00
6556;DHT22;3311;48.32423000;14.29074500;2022-11-27T16:43:44;9.50;67.30
6556;DHT22;3311;48.32423000;14.29074500;2022-11-27T16:46:13;9.50;67.00
6556;DHT22;3311;48.32423000;14.29074500;2022-11-27T16:48:42;9.40;66.50
6556;DHT22;3311;48.32423000;14.29074500;2022-11-27T16:51:12;9.40;66.60
6556;DHT22;3311;48.32423000;14.29074500;2022-11-27T16:53:40;9.40;66.70
6556;DHT22;3311;48.32423000;14.29074500;2022-11-27T16:56:10;9.40;66.80
6556;DHT22;3311;48.32423000;14.29074500;2022-11-27T16:58:40;9.40;66.90
6556;DHT22;3311;48.32423000;14.29074500;2022-11-27T17:01:09;9.40;67.10
6556;DHT22;3311;48.32423000;14.29074500;2022-11-27T17:03:36;9.40;67.00
6556;DHT22;3311;48.32423000;14.29074500;2022-11-27T17:06:06;9.40;66.70
6556;DHT22;3311;48.32423000;14.29074500;2022-11-27T17:08:34;9.50;66.80
6556;DHT22;3311;48.32423000;14.29074500;2022-11-27T17:11:06;9.50;66.30
6556;DHT22;3311;48.32423000;14.29074500;2022-11-27T17:13:35;9.40;66.40
6556;DHT22;3311;48.32423000;14.29074500;2022-11-27T17:16:03;9.30;66.20
6556;DHT22;3311;48.32423000;14.29074500;2022-11-27T17:18:31;9.40;66.30
6556;DHT22;3311;48.32423000;14.29074500;2022-11-27T17:21:02;9.40;66.30
6556;DHT22;3311;48.32423000;14.29074500;2022-11-27T17:23:30;9.30;66.00
6556;DHT22;3311;48.32423000;14.29074500;2022-11-27T17:25:57;9.30;66.20
6556;DHT22;3311;48.32423000;14.29074500;2022-11-27T17:28:24;9.50;65.90
6556;DHT22;3311;48.32423000;14.29074500;2022-11-27T17:30:53;9.50;65.60
6556;DHT22;3311;48.32423000;14.29074500;2022-11-27T17:33:21;9.50;65.70
6556;DHT22;3311;48.32423000;14.29074500;2022-11-27T17:35:49;9.50;65.60
6556;DHT22;3311;48.32423000;14.29074500;2022-11-27T17:38:16;9.50;65.20
6556;DHT22;3311;48.32423000;14.29074500;2022-11-27T17:40:45;9.50;65.50
6556;DHT22;3311;48.32423000;14.29074500;2022-11-27T17:43:13;9.50;65.60
6556;DHT22;3311;48.32423000;14.29074500;2022-11-27T17:45:41;9.50;65.50
6556;DHT22;3311;48.32423000;14.29074500;2022-11-27T17:48:09;9.40;65.20
6556;DHT22;3311;48.32423000;14.29074500;2022-11-27T17:50:37;9.40;65.40
6556;DHT22;3311;48.32423000;14.29074500;2022-11-27T17:53:05;9.50;65.50
6556;DHT22;3311;48.32423000;14.29074500;2022-11-27T17:55:32;9.60;65.10
6556;DHT22;3311;48.32423000;14.29074500;2022-11-27T17:57:59;9.50;64.60
6556;DHT22;3311;48.32423000;14.29074500;2022-11-27T18:00:26;9.40;64.40
6556;DHT22;3311;48.32423000;14.29074500;2022-11-27T18:02:55;9.50;64.90
6556;DHT22;3311;48.32423000;14.29074500;2022-11-27T18:05:29;9.50;64.90
6556;DHT22;3311;48.32423000;14.29074500;2022-11-27T18:07:58;9.60;64.70
6556;DHT22;3311;48.32423000;14.29074500;2022-11-27T18:10:26;9.50;64.80
6556;DHT22;3311;48.32423000;14.29074500;2022-11-27T18:12:56;9.50;64.80
6556;DHT22;3311;48.32423000;14.29074500;2022-11-27T18:15:34;9.60;64.90
6556;DHT22;3311;48.32423000;14.29074500;2022-11-27T18:18:10;9.60;64.50
6556;DHT22;3311;48.32423000;14.29074500;2022-11-27T18:20:53;9.60;64.20
6556;DHT22;3311;48.32423000;14.29074500;2022-11-27T18:23:22;9.60;64.50
6556;DHT22;3311;48.32423000;14.29074500;2022-11-27T18:25:53;9.60;64.20
6556;DHT22;3311;48.32423000;14.29074500;2022-11-27T18:28:25;9.50;64.20
6556;DHT22;3311;48.32423000;14.29074500;2022-11-27T18:30:56;9.50;63.90
6556;DHT22;3311;48.32423000;14.29074500;2022-11-27T18:33:25;9.50;63.70
6556;DHT22;3311;48.32423000;14.29074500;2022-11-27T18:35:54;9.50;64.40
6556;DHT22;3311;48.32423000;14.29074500;2022-11-27T18:38:21;9.50;64.70
6556;DHT22;3311;48.32423000;14.29074500;2022-11-27T18:40:49;9.40;64.00
6556;DHT22;3311;48.32423000;14.29074500;2022-11-27T18:43:16;9.40;64.20
6556;DHT22;3311;48.32423000;14.29074500;2022-11-27T18:45:44;9.50;64.40
6556;DHT22;3311;48.32423000;14.29074500;2022-11-27T18:48:12;9.50;64.10
6556;DHT22;3311;48.32423000;14.29074500;2022-11-27T18:50:43;9.40;64.40
6556;DHT22;3311;48.32423000;14.29074500;2022-11-27T18:53:16;9.40;64.30
6556;DHT22;3311;48.32423000;14.29074500;2022-11-27T18:55:44;9.50;64.30
6556;DHT22;3311;48.32423000;14.29074500;2022-11-27T18:58:11;9.60;64.10
6556;DHT22;3311;48.32423000;14.29074500;2022-11-27T19:00:42;9.70;63.80
6556;DHT22;3311;48.32423000;14.29074500;2022-11-27T19:03:10;9.60;63.40
6556;DHT22;3311;48.32423000;14.29074500;2022-11-27T19:05:39;9.60;63.60
6556;DHT22;3311;48.32423000;14.29074500;2022-11-27T19:08:06;9.60;63.80
6556;DHT22;3311;48.32423000;14.29074500;2022-11-27T19:10:37;9.70;63.10
6556;DHT22;3311;48.32423000;14.29074500;2022-11-27T19:13:05;9.70;63.00
6556;DHT22;3311;48.32423000;14.29074500;2022-11-27T19:15:32;9.70;62.80
6556;DHT22;3311;48.32423000;14.29074500;2022-11-27T19:17:59;9.60;62.80
6556;DHT22;3311;48.32423000;14.29074500;2022-11-27T19:20:26;9.60;63.10
6556;DHT22;3311;48.32423000;14.29074500;2022-11-27T19:22:55;9.50;62.70
6556;DHT22;3311;48.32423000;14.29074500;2022-11-27T19:25:24;9.50;62.90
6556;DHT22;3311;48.32423000;14.29074500;2022-11-27T19:27:54;9.50;62.70
6556;DHT22;3311;48.32423000;14.29074500;2022-11-27T19:30:22;9.60;62.80
6556;DHT22;3311;48.32423000;14.29074500;2022-11-27T19:32:49;9.50;62.70
6556;DHT22;3311;48.32423000;14.29074500;2022-11-27T19:35:20;9.50;62.40
6556;DHT22;3311;48.32423000;14.29074500;2022-11-27T19:37:50;9.40;62.30
6556;DHT22;3311;48.32423000;14.29074500;2022-11-27T19:40:17;9.40;62.40
6556;DHT22;3311;48.32423000;14.29074500;2022-11-27T19:42:45;9.40;62.50
6556;DHT22;3311;48.32423000;14.29074500;2022-11-27T19:45:18;9.50;62.40
6556;DHT22;3311;48.32423000;14.29074500;2022-11-27T19:47:47;9.30;62.40
6556;DHT22;3311;48.32423000;14.29074500;2022-11-27T19:50:19;9.30;62.20
6556;DHT22;3311;48.32423000;14.29074500;2022-11-27T19:52:47;9.40;62.30
6556;DHT22;3311;48.32423000;14.29074500;2022-11-27T19:55:15;9.30;62.20
6556;DHT22;3311;48.32423000;14.29074500;2022-11-27T19:57:43;9.20;62.30
6556;DHT22;3311;48.32423000;14.29074500;2022-11-27T20:00:12;9.10;62.40
6556;DHT22;3311;48.32423000;14.29074500;2022-11-27T20:02:43;9.10;62.50
6556;DHT22;3311;48.32423000;14.29074500;2022-11-27T20:05:11;9.10;62.50
6556;DHT22;3311;48.32423000;14.29074500;2022-11-27T20:07:39;9.10;62.50
6556;DHT22;3311;48.32423000;14.29074500;2022-11-27T20:10:09;9.30;62.20
6556;DHT22;3311;48.32423000;14.29074500;2022-11-27T20:12:38;9.30;61.30
6556;DHT22;3311;48.32423000;14.29074500;2022-11-27T20:15:10;9.20;61.50
6556;DHT22;3311;48.32423000;14.29074500;2022-11-27T20:17:43;9.20;61.50
6556;DHT22;3311;48.32423000;14.29074500;2022-11-27T20:20:14;9.10;61.40
6556;DHT22;3311;48.32423000;14.29074500;2022-11-27T20:22:43;9.10;61.80
6556;DHT22;3311;48.32423000;14.29074500;2022-11-27T20:25:11;9.20;61.30
6556;DHT22;3311;48.32423000;14.29074500;2022-11-27T20:27:45;9.10;61.00
6556;DHT22;3311;48.32423000;14.29074500;2022-11-27T20:30:15;9.20;61.40
6556;DHT22;3311;48.32423000;14.29074500;2022-11-27T20:32:46;9.20;61.00
6556;DHT22;3311;48.32423000;14.29074500;2022-11-27T20:35:14;9.20;60.80
6556;DHT22;3311;48.32423000;14.29074500;2022-11-27T20:37:41;9.20;61.20
6556;DHT22;3311;48.32423000;14.29074500;2022-11-27T20:40:10;9.20;60.90
6556;DHT22;3311;48.32423000;14.29074500;2022-11-27T20:42:38;9.20;60.90
6556;DHT22;3311;48.32423000;14.29074500;2022-11-27T20:45:07;9.10;60.90
6556;DHT22;3311;48.32423000;14.29074500;2022-11-27T20:47:37;9.00;60.90
6556;DHT22;3311;48.32423000;14.29074500;2022-11-27T20:50:09;9.00;61.10
6556;DHT22;3311;48.32423000;14.29074500;2022-11-27T20:52:39;9.00;61.00
6556;DHT22;3311;48.32423000;14.29074500;2022-11-27T20:55:08;9.10;61.00
6556;DHT22;3311;48.32423000;14.29074500;2022-11-27T20:57:41;9.10;60.90
6556;DHT22;3311;48.32423000;14.29074500;2022-11-27T21:00:11;9.00;61.40
6556;DHT22;3311;48.32423000;14.29074500;2022-11-27T21:02:39;9.00;61.20
6556;DHT22;3311;48.32423000;14.29074500;2022-11-27T21:05:08;9.00;61.10
6556;DHT22;3311;48.32423000;14.29074500;2022-11-27T21:07:36;9.00;60.90
6556;DHT22;3311;48.32423000;14.29074500;2022-11-27T21:10:11;9.00;60.90
6556;DHT22;3311;48.32423000;14.29074500;2022-11-27T21:12:42;9.00;60.60
6556;DHT22;3311;48.32423000;14.29074500;2022-11-27T21:15:11;9.00;60.60
6556;DHT22;3311;48.32423000;14.29074500;2022-11-27T21:17:41;9.00;60.70
6556;DHT22;3311;48.32423000;14.29074500;2022-11-27T21:20:14;9.00;60.50
6556;DHT22;3311;48.32423000;14.29074500;2022-11-27T21:22:45;9.00;60.50
6556;DHT22;3311;48.32423000;14.29074500;2022-11-27T21:25:30;8.80;60.70
6556;DHT22;3311;48.32423000;14.29074500;2022-11-27T21:28:09;8.70;60.90
6556;DHT22;3311;48.32423000;14.29074500;2022-11-27T21:30:37;8.70;61.60
6556;DHT22;3311;48.32423000;14.29074500;2022-11-27T21:33:04;8.60;61.60
6556;DHT22;3311;48.32423000;14.29074500;2022-11-27T21:35:35;8.60;61.70
6556;DHT22;3311;48.32423000;14.29074500;2022-11-27T21:38:06;8.60;61.60